sensor_id;sensor_type;location;lat;lon;timestamp;pressure;altitude;pressure_sealevel;temperature;humidity
67052;BME280;53957;47.222;18.670;2023-02-04T00:00:52;99970.00;;;3.90;100.00
67052;BME280;53957;47.222;18.670;2023-02-04T00:03:55;99955.84;;;3.96;100.00
67052;BME280;53957;47.222;18.670;2023-02-04T00:06:57;99946.81;;;3.92;100.00
67052;BME280;53957;47.222;18.670;2023-02-04T00:10:02;99954.06;;;4.01;100.00
67052;BME280;53957;47.222;18.670;2023-02-04T00:13:05;99934.25;;;3.99;100.00
67052;BME280;53957;47.222;18.670;2023-02-04T00:16:08;99948.28;;;4.05;100.00
67052;BME280;53957;47.222;18.670;2023-02-04T00:19:11;99942.75;;;4.06;100.00
67052;BME280;53957;47.222;18.670;2023-02-04T00:22:14;99937.19;;;4.02;100.00
67052;BME280;53957;47.222;18.670;2023-02-04T00:25:17;99939.63;;;4.09;100.00
67052;BME280;53957;47.222;18.670;2023-02-04T00:28:20;99924.59;;;4.10;100.00
67052;BME280;53957;47.222;18.670;2023-02-04T00:31:23;99934.97;;;4.16;100.00
67052;BME280;53957;47.222;18.670;2023-02-04T00:34:27;99941.28;;;4.15;100.00
67052;BME280;53957;47.222;18.670;2023-02-04T00:37:31;99928.50;;;4.07;100.00
67052;BME280;53957;47.222;18.670;2023-02-04T00:40:34;99936.25;;;4.14;100.00
67052;BME280;53957;47.222;18.670;2023-02-04T00:43:37;99931.72;;;4.09;100.00
67052;BME280;53957;47.222;18.670;2023-02-04T00:46:41;99934.66;;;4.13;100.00
67052;BME280;53957;47.222;18.670;2023-02-04T00:49:48;99938.66;;;4.15;100.00
67052;BME280;53957;47.222;18.670;2023-02-04T00:52:51;99935.16;;;4.10;100.00
67052;BME280;53957;47.222;18.670;2023-02-04T00:55:54;99928.03;;;4.10;100.00
67052;BME280;53957;47.222;18.670;2023-02-04T00:58:57;99928.50;;;4.07;100.00
67052;BME280;53957;47.222;18.670;2023-02-04T01:02:00;99936.78;;;4.16;100.00
67052;BME280;53957;47.222;18.670;2023-02-04T01:05:04;99926.44;;;4.09;100.00
67052;BME280;53957;47.222;18.670;2023-02-04T01:08:07;99946.06;;;4.18;100.00
67052;BME280;53957;47.222;18.670;2023-02-04T01:11:10;99916.50;;;4.16;100.00
67052;BME280;53957;47.222;18.670;2023-02-04T01:14:13;99934.09;;;4.33;100.00
67052;BME280;53957;47.222;18.670;2023-02-04T01:17:16;99935.22;;;4.37;100.00
67052;BME280;53957;47.222;18.670;2023-02-04T01:20:21;99943.91;;;4.38;100.00
67052;BME280;53957;47.222;18.670;2023-02-04T01:23:24;99930.59;;;4.49;100.00
67052;BME280;53957;47.222;18.670;2023-02-04T01:26:27;99934.13;;;4.38;100.00
67052;BME280;53957;47.222;18.670;2023-02-04T01:29:30;99945.44;;;4.56;100.00
67052;BME280;53957;47.222;18.670;2023-02-04T01:32:33;99946.97;;;4.51;100.00
67052;BME280;53957;47.222;18.670;2023-02-04T01:35:36;99939.94;;;4.62;100.00
67052;BME280;53957;47.222;18.670;2023-02-04T01:38:38;99954.09;;;4.51;100.00
67052;BME280;53957;47.222;18.670;2023-02-04T01:41:42;99951.97;;;4.53;100.00
67052;BME280;53957;47.222;18.670;2023-02-04T01:44:45;99949.00;;;4.44;100.00
67052;BME280;53957;47.222;18.670;2023-02-04T01:47:48;99946.00;;;4.35;100.00
67052;BME280;53957;47.222;18.670;2023-02-04T01:51:01;99949.25;;;4.21;100.00
67052;BME280;53957;47.222;18.670;2023-02-04T01:54:09;99951.78;;;4.32;100.00
67052;BME280;53957;47.222;18.670;2023-02-04T01:57:14;99958.66;;;4.33;100.00
67052;BME280;53957;47.222;18.670;2023-02-04T02:00:27;99954.78;;;4.41;100.00
67052;BME280;53957;47.222;18.670;2023-02-04T02:03:31;99938.97;;;4.46;100.00
67052;BME280;53957;47.222;18.670;2023-02-04T02:06:38;99953.53;;;4.49;100.00
67052;BME280;53957;47.222;18.670;2023-02-04T02:09:44;99948.00;;;4.50;100.00
67052;BME280;53957;47.222;18.670;2023-02-04T02:12:47;99958.16;;;4.64;100.00
67052;BME280;53957;47.222;18.670;2023-02-04T02:15:50;99948.16;;;4.66;100.00
67052;BME280;53957;47.222;18.670;2023-02-04T02:18:53;99948.94;;;4.66;100.00
67052;BME280;53957;47.222;18.670;2023-02-04T02:22:02;99942.56;;;4.62;100.00
67052;BME280;53957;47.222;18.670;2023-02-04T02:25:11;99938.16;;;4.68;100.00
67052;BME280;53957;47.222;18.670;2023-02-04T02:28:17;99946.59;;;4.70;100.00
67052;BME280;53957;47.222;18.670;2023-02-04T02:31:22;99956.69;;;4.73;100.00
67052;BME280;53957;47.222;18.670;2023-02-04T02:34:27;99953.50;;;4.71;100.00
67052;BME280;53957;47.222;18.670;2023-02-04T02:37:31;99945.16;;;4.84;100.00
67052;BME280;53957;47.222;18.670;2023-02-04T02:40:34;99959.16;;;4.85;100.00
67052;BME280;53957;47.222;18.670;2023-02-04T02:43:37;99945.00;;;4.69;100.00
67052;BME280;53957;47.222;18.670;2023-02-04T02:46:41;99945.72;;;4.87;100.00
67052;BME280;53957;47.222;18.670;2023-02-04T02:49:47;99941.94;;;4.77;100.00
67052;BME280;53957;47.222;18.670;2023-02-04T02:52:51;99933.50;;;4.80;100.00
67052;BME280;53957;47.222;18.670;2023-02-04T02:55:55;99938.72;;;4.75;100.00
67052;BME280;53957;47.222;18.670;2023-02-04T02:59:14;99941.94;;;4.77;100.00
67052;BME280;53957;47.222;18.670;2023-02-04T03:02:21;99915.19;;;4.74;100.00
67052;BME280;53957;47.222;18.670;2023-02-04T03:05:26;99921.88;;;4.81;100.00
67052;BME280;53957;47.222;18.670;2023-02-04T03:08:32;99921.03;;;4.76;100.00
67052;BME280;53957;47.222;18.670;2023-02-04T03:11:35;99919.47;;;4.80;100.00
67052;BME280;53957;47.222;18.670;2023-02-04T03:14:39;99912.38;;;4.80;100.00
67052;BME280;53957;47.222;18.670;2023-02-04T03:17:43;99907.72;;;4.93;100.00
67052;BME280;53957;47.222;18.670;2023-02-04T03:20:48;99907.50;;;4.67;100.00
67052;BME280;53957;47.222;18.670;2023-02-04T03:23:52;99901.16;;;4.68;100.00
67052;BME280;53957;47.222;18.670;2023-02-04T03:26:59;99900.84;;;4.92;100.00
67052;BME280;53957;47.222;18.670;2023-02-04T03:30:02;99888.00;;;4.73;100.00
67052;BME280;53957;47.222;18.670;2023-02-04T03:33:05;99886.69;;;4.76;100.00
67052;BME280;53957;47.222;18.670;2023-02-04T03:36:08;99889.91;;;4.78;100.00
67052;BME280;53957;47.222;18.670;2023-02-04T03:39:12;99886.50;;;4.88;100.00
67052;BME280;53957;47.222;18.670;2023-02-04T03:42:14;99870.03;;;4.75;100.00
67052;BME280;53957;47.222;18.670;2023-02-04T03:45:18;99881.19;;;4.82;100.00
67052;BME280;53957;47.222;18.670;2023-02-04T03:48:21;99861.56;;;4.73;100.00
67052;BME280;53957;47.222;18.670;2023-02-04T03:51:24;99867.34;;;4.70;100.00
67052;BME280;53957;47.222;18.670;2023-02-04T03:54:27;99859.91;;;4.62;100.00
67052;BME280;53957;47.222;18.670;2023-02-04T03:57:30;99847.75;;;4.61;100.00
67052;BME280;53957;47.222;18.670;2023-02-04T04:00:33;99847.75;;;4.61;100.00
67052;BME280;53957;47.222;18.670;2023-02-04T04:03:36;99847.19;;;4.59;100.00
67052;BME280;53957;47.222;18.670;2023-02-04T04:06:39;99852.06;;;4.72;100.00
67052;BME280;53957;47.222;18.670;2023-02-04T04:09:43;99869.88;;;4.55;100.00
67052;BME280;53957;47.222;18.670;2023-02-04T04:12:45;99850.84;;;4.53;100.00
67052;BME280;53957;47.222;18.670;2023-02-04T04:15:48;99852.44;;;4.54;100.00
67052;BME280;53957;47.222;18.670;2023-02-04T04:18:51;99853.69;;;4.46;100.00
67052;BME280;53957;47.222;18.670;2023-02-04T04:21:54;99848.44;;;4.51;100.00
67052;BME280;53957;47.222;18.670;2023-02-04T04:24:58;99840.03;;;4.59;100.00
67052;BME280;53957;47.222;18.670;2023-02-04T04:28:01;99840.94;;;4.70;100.00
67052;BME280;53957;47.222;18.670;2023-02-04T04:31:04;99824.38;;;4.47;100.00
67052;BME280;53957;47.222;18.670;2023-02-04T04:34:07;99832.31;;;4.47;100.00
67052;BME280;53957;47.222;18.670;2023-02-04T04:37:17;99825.50;;;4.57;100.00
67052;BME280;53957;47.222;18.670;2023-02-04T04:40:20;99825.56;;;4.62;100.00
67052;BME280;53957;47.222;18.670;2023-02-04T04:43:23;99823.16;;;4.60;100.00
67052;BME280;53957;47.222;18.670;2023-02-04T04:46:26;99829.22;;;4.56;100.00
67052;BME280;53957;47.222;18.670;2023-02-04T04:49:29;99821.00;;;4.52;100.00
67052;BME280;53957;47.222;18.670;2023-02-04T04:52:33;99818.13;;;4.59;100.00
67052;BME280;53957;47.222;18.670;2023-02-04T04:55:39;99827.97;;;4.68;100.00
67052;BME280;53957;47.222;18.670;2023-02-04T04:58:42;99823.78;;;4.73;100.00
67052;BME280;53957;47.222;18.670;2023-02-04T05:01:45;99817.34;;;4.58;100.00
67052;BME280;53957;47.222;18.670;2023-02-04T05:04:48;99820.19;;;4.51;100.00
67052;BME280;53957;47.222;18.670;2023-02-04T05:07:51;99820.19;;;4.51;100.00
67052;BME280;53957;47.222;18.670;2023-02-04T05:10:55;99813.62;;;4.59;100.00
67052;BME280;53957;47.222;18.670;2023-02-04T05:13:58;99808.72;;;4.68;100.00
67052;BME280;53957;47.222;18.670;2023-02-04T05:17:01;99820.31;;;4.67;100.00
67052;BME280;53957;47.222;18.670;2023-02-04T05:20:04;99836.19;;;4.72;100.00
67052;BME280;53957;47.222;18.670;2023-02-04T05:23:07;99835.88;;;4.63;100.00
67052;BME280;53957;47.222;18.670;2023-02-04T05:26:10;99821.28;;;4.56;100.00
67052;BME280;53957;47.222;18.670;2023-02-04T05:29:24;99821.81;;;4.58;100.00
67052;BME280;53957;47.222;18.670;2023-02-04T05:32:27;99817.63;;;4.62;100.00
67052;BME280;53957;47.222;18.670;2023-02-04T05:35:30;99799.19;;;4.67;100.00
67052;BME280;53957;47.222;18.670;2023-02-04T05:38:33;99808.63;;;4.63;100.00
67052;BME280;53957;47.222;18.670;2023-02-04T05:41:36;99793.81;;;4.57;100.00
67052;BME280;53957;47.222;18.670;2023-02-04T05:44:39;99805.72;;;4.59;100.00
67052;BME280;53957;47.222;18.670;2023-02-04T05:47:43;99815.28;;;4.65;100.00
67052;BME280;53957;47.222;18.670;2023-02-04T05:50:46;99829.88;;;4.73;100.00
67052;BME280;53957;47.222;18.670;2023-02-04T05:53:49;99823.97;;;4.61;100.00
67052;BME280;53957;47.222;18.670;2023-02-04T05:56:52;99861.63;;;4.46;100.00
67052;BME280;53957;47.222;18.670;2023-02-04T05:59:55;99857.22;;;4.29;100.00
67052;BME280;53957;47.222;18.670;2023-02-04T06:02:59;99868.00;;;4.23;100.00
67052;BME280;53957;47.222;18.670;2023-02-04T06:06:02;99878.81;;;3.99;100.00
67052;BME280;53957;47.222;18.670;2023-02-04T06:09:05;99870.53;;;3.90;100.00
67052;BME280;53957;47.222;18.670;2023-02-04T06:12:08;99912.47;;;3.86;100.00
67052;BME280;53957;47.222;18.670;2023-02-04T06:15:11;99907.84;;;3.77;100.00
67052;BME280;53957;47.222;18.670;2023-02-04T06:18:15;99910.13;;;3.68;100.00
67052;BME280;53957;47.222;18.670;2023-02-04T06:21:26;99912.66;;;3.63;100.00
67052;BME280;53957;47.222;18.670;2023-02-04T06:24:33;99925.22;;;3.55;100.00
67052;BME280;53957;47.222;18.670;2023-02-04T06:27:37;99924.81;;;3.64;100.00
67052;BME280;53957;47.222;18.670;2023-02-04T06:30:41;99932.16;;;3.62;100.00
67052;BME280;53957;47.222;18.670;2023-02-04T06:33:45;99950.72;;;3.67;100.00
67052;BME280;53957;47.222;18.670;2023-02-04T06:36:48;99944.94;;;3.70;100.00
67052;BME280;53957;47.222;18.670;2023-02-04T06:39:51;99959.16;;;3.69;100.00
67052;BME280;53957;47.222;18.670;2023-02-04T06:42:56;99967.50;;;3.61;100.00
67052;BME280;53957;47.222;18.670;2023-02-04T06:45:59;99967.72;;;3.59;100.00
67052;BME280;53957;47.222;18.670;2023-02-04T06:49:03;99974.12;;;3.63;100.00
67052;BME280;53957;47.222;18.670;2023-02-04T06:52:07;99975.50;;;3.66;100.00
67052;BME280;53957;47.222;18.670;2023-02-04T06:55:13;99987.16;;;3.70;100.00
67052;BME280;53957;47.222;18.670;2023-02-04T06:58:38;99987.78;;;3.77;100.00
67052;BME280;53957;47.222;18.670;2023-02-04T07:01:42;99979.78;;;3.89;100.00
67052;BME280;53957;47.222;18.670;2023-02-04T07:05:05;99966.00;;;3.87;100.00
67052;BME280;53957;47.222;18.670;2023-02-04T07:08:33;99979.63;;;3.79;100.00
67052;BME280;53957;47.222;18.670;2023-02-04T07:11:41;99978.44;;;3.69;100.00
67052;BME280;53957;47.222;18.670;2023-02-04T07:14:45;99969.59;;;3.59;100.00
67052;BME280;53957;47.222;18.670;2023-02-04T07:18:15;99980.31;;;3.52;99.71
67052;BME280;53957;47.222;18.670;2023-02-04T07:21:20;99988.22;;;3.35;99.45
67052;BME280;53957;47.222;18.670;2023-02-04T07:24:24;99997.06;;;3.12;99.89
67052;BME280;53957;47.222;18.670;2023-02-04T07:27:31;99998.72;;;3.01;99.38
67052;BME280;53957;47.222;18.670;2023-02-04T07:30:40;100042.66;;;3.12;98.90
67052;BME280;53957;47.222;18.670;2023-02-04T07:33:43;100047.84;;;3.07;96.73
67052;BME280;53957;47.222;18.670;2023-02-04T07:36:48;100032.03;;;3.07;98.31
67052;BME280;53957;47.222;18.670;2023-02-04T07:39:54;100037.84;;;2.92;95.66
67052;BME280;53957;47.222;18.670;2023-02-04T07:42:57;100063.91;;;2.77;97.46
67052;BME280;53957;47.222;18.670;2023-02-04T07:46:04;100046.84;;;2.67;98.05
67052;BME280;53957;47.222;18.670;2023-02-04T07:49:10;100042.19;;;3.15;96.25
67052;BME280;53957;47.222;18.670;2023-02-04T07:52:15;100084.31;;;4.12;89.56
67052;BME280;53957;47.222;18.670;2023-02-04T07:55:19;100062.34;;;3.55;91.97
67052;BME280;53957;47.222;18.670;2023-02-04T07:58:26;100077.41;;;3.09;93.23
67052;BME280;53957;47.222;18.670;2023-02-04T08:01:29;100106.16;;;2.70;96.94
67052;BME280;53957;47.222;18.670;2023-02-04T08:04:34;100093.16;;;2.39;98.86
67052;BME280;53957;47.222;18.670;2023-02-04T08:07:38;100124.87;;;2.33;99.76
67052;BME280;53957;47.222;18.670;2023-02-04T08:10:44;100115.72;;;2.47;100.00
67052;BME280;53957;47.222;18.670;2023-02-04T08:13:50;100131.25;;;2.61;100.00
67052;BME280;53957;47.222;18.670;2023-02-04T08:16:56;100135.97;;;2.35;100.00
67052;BME280;53957;47.222;18.670;2023-02-04T08:20:00;100151.78;;;2.35;100.00
67052;BME280;53957;47.222;18.670;2023-02-04T08:23:27;100150.06;;;2.29;98.80
67052;BME280;53957;47.222;18.670;2023-02-04T08:26:30;100182.09;;;2.25;98.04
67052;BME280;53957;47.222;18.670;2023-02-04T08:29:33;100175.56;;;2.28;100.00
67052;BME280;53957;47.222;18.670;2023-02-04T08:32:36;100183.00;;;2.19;100.00
67052;BME280;53957;47.222;18.670;2023-02-04T08:36:10;100176.13;;;2.06;100.00
67052;BME280;53957;47.222;18.670;2023-02-04T08:39:15;100173.81;;;1.98;100.00
67052;BME280;53957;47.222;18.670;2023-02-04T08:42:18;100184.00;;;1.95;100.00
67052;BME280;53957;47.222;18.670;2023-02-04T08:45:22;100157.09;;;1.81;100.00
67052;BME280;53957;47.222;18.670;2023-02-04T08:48:25;100200.31;;;1.85;100.00
67052;BME280;53957;47.222;18.670;2023-02-04T08:51:28;100214.41;;;1.90;100.00
67052;BME280;53957;47.222;18.670;2023-02-04T08:54:32;100219.87;;;1.89;100.00
67052;BME280;53957;47.222;18.670;2023-02-04T08:57:43;100242.44;;;1.97;99.75
67052;BME280;53957;47.222;18.670;2023-02-04T09:00:46;100242.69;;;2.07;99.92
67052;BME280;53957;47.222;18.670;2023-02-04T09:03:49;100232.41;;;2.17;98.27
67052;BME280;53957;47.222;18.670;2023-02-04T09:06:52;100243.44;;;2.26;98.35
67052;BME280;53957;47.222;18.670;2023-02-04T09:10:01;100243.91;;;2.35;97.40
67052;BME280;53957;47.222;18.670;2023-02-04T09:13:04;100258.66;;;2.36;97.93
67052;BME280;53957;47.222;18.670;2023-02-04T09:16:07;100294.94;;;2.46;98.38
67052;BME280;53957;47.222;18.670;2023-02-04T09:19:11;100234.28;;;2.29;96.81
67052;BME280;53957;47.222;18.670;2023-02-04T09:22:18;100281.78;;;2.34;99.36
67052;BME280;53957;47.222;18.670;2023-02-04T09:25:21;100278.59;;;2.44;97.36
67052;BME280;53957;47.222;18.670;2023-02-04T09:28:46;100300.09;;;3.47;94.21
67052;BME280;53957;47.222;18.670;2023-02-04T09:31:50;100311.00;;;3.80;91.57
67052;BME280;53957;47.222;18.670;2023-02-04T09:34:57;100303.50;;;3.60;91.16
67052;BME280;53957;47.222;18.670;2023-02-04T09:38:00;100336.31;;;3.28;92.83
67052;BME280;53957;47.222;18.670;2023-02-04T09:41:07;100315.69;;;3.78;88.54
67052;BME280;53957;47.222;18.670;2023-02-04T09:44:18;100373.47;;;3.03;90.90
67052;BME280;53957;47.222;18.670;2023-02-04T09:47:24;100368.56;;;2.52;92.94
67052;BME280;53957;47.222;18.670;2023-02-04T09:50:29;100367.19;;;3.04;90.99
67052;BME280;53957;47.222;18.670;2023-02-04T09:53:37;100385.13;;;4.07;88.68
67052;BME280;53957;47.222;18.670;2023-02-04T09:56:41;100383.31;;;4.08;85.97
67052;BME280;53957;47.222;18.670;2023-02-04T09:59:45;100403.91;;;4.23;87.02
67052;BME280;53957;47.222;18.670;2023-02-04T10:02:49;100411.50;;;3.66;87.05
67052;BME280;53957;47.222;18.670;2023-02-04T10:05:52;100420.47;;;3.53;89.13
67052;BME280;53957;47.222;18.670;2023-02-04T10:08:55;100464.37;;;3.95;86.53
67052;BME280;53957;47.222;18.670;2023-02-04T10:12:02;100477.28;;;4.21;84.32
67052;BME280;53957;47.222;18.670;2023-02-04T10:15:11;100457.34;;;4.42;86.77
67052;BME280;53957;47.222;18.670;2023-02-04T10:18:19;100469.59;;;4.48;84.42
67052;BME280;53957;47.222;18.670;2023-02-04T10:22:16;100472.97;;;3.55;86.02
67052;BME280;53957;47.222;18.670;2023-02-04T10:25:22;100512.41;;;4.09;88.45
67052;BME280;53957;47.222;18.670;2023-02-04T10:28:34;100523.91;;;4.03;87.51
67052;BME280;53957;47.222;18.670;2023-02-04T10:32:04;100534.59;;;3.84;85.74
67052;BME280;53957;47.222;18.670;2023-02-04T10:35:28;100515.53;;;3.82;85.20
67052;BME280;53957;47.222;18.670;2023-02-04T10:38:32;100534.84;;;4.47;82.22
67052;BME280;53957;47.222;18.670;2023-02-04T10:41:38;100528.69;;;4.18;84.55
67052;BME280;53957;47.222;18.670;2023-02-04T10:44:45;100543.84;;;4.11;83.69
67052;BME280;53957;47.222;18.670;2023-02-04T10:47:50;100547.16;;;3.47;84.81
67052;BME280;53957;47.222;18.670;2023-02-04T10:50:55;100584.78;;;3.42;87.81
67052;BME280;53957;47.222;18.670;2023-02-04T10:54:00;100588.03;;;3.26;87.94
67052;BME280;53957;47.222;18.670;2023-02-04T10:57:25;100586.22;;;2.96;87.97
67052;BME280;53957;47.222;18.670;2023-02-04T11:00:29;100608.41;;;2.69;91.43
67052;BME280;53957;47.222;18.670;2023-02-04T11:03:33;100608.06;;;2.66;91.59
67052;BME280;53957;47.222;18.670;2023-02-04T11:06:36;100636.13;;;2.53;90.80
67052;BME280;53957;47.222;18.670;2023-02-04T11:09:41;100643.03;;;2.54;91.30
67052;BME280;53957;47.222;18.670;2023-02-04T11:16:31;100649.09;;;2.73;92.18
67052;BME280;53957;47.222;18.670;2023-02-04T11:19:38;100675.34;;;2.80;88.71
67052;BME280;53957;47.222;18.670;2023-02-04T11:22:43;100664.50;;;3.07;88.74
67052;BME280;53957;47.222;18.670;2023-02-04T11:25:46;100677.03;;;3.12;87.43
67052;BME280;53957;47.222;18.670;2023-02-04T11:29:06;100688.53;;;3.17;86.55
67052;BME280;53957;47.222;18.670;2023-02-04T11:32:59;100684.97;;;3.42;87.32
67052;BME280;53957;47.222;18.670;2023-02-04T11:36:05;100707.78;;;3.67;82.85
67052;BME280;53957;47.222;18.670;2023-02-04T11:39:15;100719.78;;;3.63;84.47
67052;BME280;53957;47.222;18.670;2023-02-04T11:42:40;100716.25;;;3.69;82.57
67052;BME280;53957;47.222;18.670;2023-02-04T11:45:43;100724.50;;;4.03;83.24
67052;BME280;53957;47.222;18.670;2023-02-04T11:48:59;100724.53;;;4.27;82.93
67052;BME280;53957;47.222;18.670;2023-02-04T11:52:26;100715.09;;;4.07;80.82
67052;BME280;53957;47.222;18.670;2023-02-04T11:55:33;100752.75;;;4.02;82.20
67052;BME280;53957;47.222;18.670;2023-02-04T11:58:37;100765.78;;;3.97;81.54
67052;BME280;53957;47.222;18.670;2023-02-04T12:01:41;100782.75;;;3.90;79.58
67052;BME280;53957;47.222;18.670;2023-02-04T12:04:52;100773.56;;;3.80;83.79
67052;BME280;53957;47.222;18.670;2023-02-04T12:07:54;100786.56;;;3.45;83.71
67052;BME280;53957;47.222;18.670;2023-02-04T12:11:00;100780.91;;;3.60;84.68
67052;BME280;53957;47.222;18.670;2023-02-04T12:14:09;100791.34;;;3.54;82.64
67052;BME280;53957;47.222;18.670;2023-02-04T12:17:15;100815.94;;;3.48;81.32
67052;BME280;53957;47.222;18.670;2023-02-04T12:20:19;100821.78;;;3.50;81.00
67052;BME280;53957;47.222;18.670;2023-02-04T12:23:23;100825.16;;;3.39;81.72
67052;BME280;53957;47.222;18.670;2023-02-04T12:26:26;100828.09;;;3.86;81.96
67052;BME280;53957;47.222;18.670;2023-02-04T12:29:30;100845.97;;;3.66;80.21
67052;BME280;53957;47.222;18.670;2023-02-04T12:32:33;100839.38;;;3.38;79.77
67052;BME280;53957;47.222;18.670;2023-02-04T12:35:36;100866.84;;;3.30;80.67
67052;BME280;53957;47.222;18.670;2023-02-04T12:38:40;100866.75;;;3.37;80.54
67052;BME280;53957;47.222;18.670;2023-02-04T12:41:43;100869.59;;;3.61;81.67
67052;BME280;53957;47.222;18.670;2023-02-04T12:44:48;100883.34;;;3.63;82.66
67052;BME280;53957;47.222;18.670;2023-02-04T12:47:51;100853.91;;;3.47;79.74
67052;BME280;53957;47.222;18.670;2023-02-04T12:50:55;100877.69;;;3.41;81.18
67052;BME280;53957;47.222;18.670;2023-02-04T12:53:59;100872.00;;;3.18;81.91
67052;BME280;53957;47.222;18.670;2023-02-04T12:57:02;100850.28;;;3.42;81.95
67052;BME280;53957;47.222;18.670;2023-02-04T13:00:06;100861.94;;;3.52;82.18
67052;BME280;53957;47.222;18.670;2023-02-04T13:03:11;100898.88;;;3.52;83.13
67052;BME280;53957;47.222;18.670;2023-02-04T13:06:39;100888.31;;;3.34;80.21
67052;BME280;53957;47.222;18.670;2023-02-04T13:09:42;100899.94;;;3.26;78.49
67052;BME280;53957;47.222;18.670;2023-02-04T13:12:47;100913.22;;;3.38;77.29
67052;BME280;53957;47.222;18.670;2023-02-04T13:15:51;100907.59;;;3.09;74.40
67052;BME280;53957;47.222;18.670;2023-02-04T13:18:54;100923.88;;;3.25;75.87
67052;BME280;53957;47.222;18.670;2023-02-04T13:22:00;100915.75;;;3.01;74.66
67052;BME280;53957;47.222;18.670;2023-02-04T13:25:08;100931.87;;;2.86;73.88
67052;BME280;53957;47.222;18.670;2023-02-04T13:28:13;100941.53;;;2.99;75.69
67052;BME280;53957;47.222;18.670;2023-02-04T13:31:16;100954.44;;;3.07;74.83
67052;BME280;53957;47.222;18.670;2023-02-04T13:34:20;100950.25;;;2.93;74.48
67052;BME280;53957;47.222;18.670;2023-02-04T13:37:23;100978.22;;;2.94;71.33
67052;BME280;53957;47.222;18.670;2023-02-04T13:40:28;100956.69;;;2.71;73.58
67052;BME280;53957;47.222;18.670;2023-02-04T13:43:32;100962.25;;;2.88;71.65
67052;BME280;53957;47.222;18.670;2023-02-04T13:46:38;100955.03;;;2.77;69.70
67052;BME280;53957;47.222;18.670;2023-02-04T13:49:42;100979.19;;;2.67;66.91
67052;BME280;53957;47.222;18.670;2023-02-04T13:52:45;100989.34;;;2.64;67.26
67052;BME280;53957;47.222;18.670;2023-02-04T13:55:51;100996.06;;;2.60;68.17
67052;BME280;53957;47.222;18.670;2023-02-04T13:58:54;101001.47;;;2.71;70.54
67052;BME280;53957;47.222;18.670;2023-02-04T14:01:59;101001.75;;;2.56;69.14
67052;BME280;53957;47.222;18.670;2023-02-04T14:05:03;101044.50;;;2.52;71.76
67052;BME280;53957;47.222;18.670;2023-02-04T14:08:07;101035.78;;;2.51;70.59
67052;BME280;53957;47.222;18.670;2023-02-04T14:11:11;101045.94;;;2.48;73.13
67052;BME280;53957;47.222;18.670;2023-02-04T14:14:13;101061.34;;;2.44;75.86
67052;BME280;53957;47.222;18.670;2023-02-04T14:17:18;101060.56;;;2.23;74.95
67052;BME280;53957;47.222;18.670;2023-02-04T14:20:21;101049.66;;;2.13;75.24
67052;BME280;53957;47.222;18.670;2023-02-04T14:23:24;101064.25;;;2.09;74.07
67052;BME280;53957;47.222;18.670;2023-02-04T14:26:30;101030.28;;;1.87;70.65
67052;BME280;53957;47.222;18.670;2023-02-04T14:29:38;101071.56;;;1.93;71.42
67052;BME280;53957;47.222;18.670;2023-02-04T14:32:41;101073.19;;;1.74;67.85
67052;BME280;53957;47.222;18.670;2023-02-04T14:35:47;101084.09;;;1.71;70.71
67052;BME280;53957;47.222;18.670;2023-02-04T14:38:56;101099.69;;;1.59;71.41
67052;BME280;53957;47.222;18.670;2023-02-04T14:42:00;101102.88;;;1.48;70.66
67052;BME280;53957;47.222;18.670;2023-02-04T14:45:07;101107.09;;;1.29;71.96
67052;BME280;53957;47.222;18.670;2023-02-04T14:48:12;101112.75;;;1.19;71.76
67052;BME280;53957;47.222;18.670;2023-02-04T14:51:18;101123.09;;;1.27;73.40
67052;BME280;53957;47.222;18.670;2023-02-04T14:54:23;101122.25;;;1.20;73.12
67052;BME280;53957;47.222;18.670;2023-02-04T14:57:28;101119.59;;;1.13;74.03
67052;BME280;53957;47.222;18.670;2023-02-04T15:00:35;101144.22;;;1.06;75.84
67052;BME280;53957;47.222;18.670;2023-02-04T15:03:58;101142.16;;;0.94;77.34
67052;BME280;53957;47.222;18.670;2023-02-04T15:07:02;101147.84;;;0.98;78.86
67052;BME280;53957;47.222;18.670;2023-02-04T15:10:10;101149.63;;;0.91;79.45
67052;BME280;53957;47.222;18.670;2023-02-04T15:13:22;101152.37;;;0.76;78.06
67052;BME280;53957;47.222;18.670;2023-02-04T15:16:25;101146.28;;;0.69;76.60
67052;BME280;53957;47.222;18.670;2023-02-04T15:19:29;101160.56;;;0.59;79.09
67052;BME280;53957;47.222;18.670;2023-02-04T15:22:33;101164.75;;;0.47;79.44
67052;BME280;53957;47.222;18.670;2023-02-04T15:25:36;101180.06;;;0.43;78.24
67052;BME280;53957;47.222;18.670;2023-02-04T15:28:40;101189.13;;;0.41;78.04
67052;BME280;53957;47.222;18.670;2023-02-04T15:31:44;101208.84;;;0.37;78.32
67052;BME280;53957;47.222;18.670;2023-02-04T15:34:49;101214.88;;;0.30;77.51
67052;BME280;53957;47.222;18.670;2023-02-04T15:37:53;101240.47;;;0.28;80.30
67052;BME280;53957;47.222;18.670;2023-02-04T15:40:56;101232.19;;;0.25;79.28
67052;BME280;53957;47.222;18.670;2023-02-04T15:44:00;101256.56;;;0.19;79.82
67052;BME280;53957;47.222;18.670;2023-02-04T15:47:03;101251.00;;;0.07;79.11
67052;BME280;53957;47.222;18.670;2023-02-04T15:50:09;101266.47;;;0.02;78.62
67052;BME280;53957;47.222;18.670;2023-02-04T15:53:15;101269.84;;;-0.05;79.82
67052;BME280;53957;47.222;18.670;2023-02-04T15:56:19;101273.03;;;-0.09;80.10
67052;BME280;53957;47.222;18.670;2023-02-04T15:59:41;101292.75;;;-0.13;79.16
67052;BME280;53957;47.222;18.670;2023-02-04T16:02:47;101306.03;;;-0.15;78.21
67052;BME280;53957;47.222;18.670;2023-02-04T16:05:50;101300.78;;;-0.15;77.29
67052;BME280;53957;47.222;18.670;2023-02-04T16:08:53;101313.09;;;-0.15;78.21
67052;BME280;53957;47.222;18.670;2023-02-04T16:11:58;101311.00;;;-0.20;78.66
67052;BME280;53957;47.222;18.670;2023-02-04T16:15:01;101318.09;;;-0.21;77.64